sensor_id;sensor_type;location;lat;lon;timestamp;temperature;humidity
1956;DHT22;978;48.314;11.562;2022-09-09T00:00:49;22.90;90.60
1956;DHT22;978;48.314;11.562;2022-09-09T00:03:21;22.90;90.60
1956;DHT22;978;48.314;11.562;2022-09-09T00:05:57;22.90;90.50
1956;DHT22;978;48.314;11.562;2022-09-09T00:08:34;22.90;90.50
1956;DHT22;978;48.314;11.562;2022-09-09T00:11:07;22.90;90.50
1956;DHT22;978;48.314;11.562;2022-09-09T00:13:41;22.90;90.50
1956;DHT22;978;48.314;11.562;2022-09-09T00:16:15;22.90;90.50
1956;DHT22;978;48.314;11.562;2022-09-09T00:18:52;22.90;90.50
1956;DHT22;978;48.314;11.562;2022-09-09T00:21:26;22.90;90.50
1956;DHT22;978;48.314;11.562;2022-09-09T00:23:59;22.90;90.50
1956;DHT22;978;48.314;11.562;2022-09-09T00:26:32;22.90;90.50
1956;DHT22;978;48.314;11.562;2022-09-09T00:29:10;22.90;90.70
1956;DHT22;978;48.314;11.562;2022-09-09T00:31:41;22.90;90.40
1956;DHT22;978;48.314;11.562;2022-09-09T00:34:12;22.90;90.40
1956;DHT22;978;48.314;11.562;2022-09-09T00:36:42;22.90;90.40
1956;DHT22;978;48.314;11.562;2022-09-09T00:39:27;22.90;90.40
1956;DHT22;978;48.314;11.562;2022-09-09T00:42:13;22.90;90.40
1956;DHT22;978;48.314;11.562;2022-09-09T00:44:56;22.90;90.40
1956;DHT22;978;48.314;11.562;2022-09-09T00:47:40;22.90;90.40
1956;DHT22;978;48.314;11.562;2022-09-09T00:50:29;22.90;90.40
1956;DHT22;978;48.314;11.562;2022-09-09T00:53:16;22.90;90.40
1956;DHT22;978;48.314;11.562;2022-09-09T00:55:49;22.80;90.30
1956;DHT22;978;48.314;11.562;2022-09-09T00:58:21;22.90;90.40
1956;DHT22;978;48.314;11.562;2022-09-09T01:00:52;22.90;90.30
1956;DHT22;978;48.314;11.562;2022-09-09T01:03:30;22.90;90.30
1956;DHT22;978;48.314;11.562;2022-09-09T01:06:14;22.90;90.30
1956;DHT22;978;48.314;11.562;2022-09-09T01:09:08;22.90;90.30
1956;DHT22;978;48.314;11.562;2022-09-09T01:11:47;22.90;90.30
1956;DHT22;978;48.314;11.562;2022-09-09T01:14:27;22.90;90.30
1956;DHT22;978;48.314;11.562;2022-09-09T01:17:01;22.80;90.30
1956;DHT22;978;48.314;11.562;2022-09-09T01:19:45;22.90;90.30
1956;DHT22;978;48.314;11.562;2022-09-09T01:22:22;22.90;90.30
1956;DHT22;978;48.314;11.562;2022-09-09T01:28:01;22.90;90.20
1956;DHT22;978;48.314;11.562;2022-09-09T01:30:31;22.90;90.30
1956;DHT22;978;48.314;11.562;2022-09-09T01:33:00;22.90;90.20
1956;DHT22;978;48.314;11.562;2022-09-09T01:35:37;22.90;90.20
1956;DHT22;978;48.314;11.562;2022-09-09T01:38:06;22.80;90.20
1956;DHT22;978;48.314;11.562;2022-09-09T01:40:37;22.90;90.20
1956;DHT22;978;48.314;11.562;2022-09-09T01:43:08;22.90;90.20
1956;DHT22;978;48.314;11.562;2022-09-09T01:45:37;22.90;90.20
1956;DHT22;978;48.314;11.562;2022-09-09T01:48:06;22.90;90.20
1956;DHT22;978;48.314;11.562;2022-09-09T01:50:36;22.90;90.10
1956;DHT22;978;48.314;11.562;2022-09-09T01:53:04;22.90;90.10
1956;DHT22;978;48.314;11.562;2022-09-09T01:55:35;22.80;90.10
1956;DHT22;978;48.314;11.562;2022-09-09T01:58:27;22.90;90.10
1956;DHT22;978;48.314;11.562;2022-09-09T02:01:04;22.80;90.10
1956;DHT22;978;48.314;11.562;2022-09-09T02:03:36;22.90;90.10
1956;DHT22;978;48.314;11.562;2022-09-09T02:06:10;22.80;90.10
1956;DHT22;978;48.314;11.562;2022-09-09T02:08:45;22.80;90.10
1956;DHT22;978;48.314;11.562;2022-09-09T02:11:15;22.80;90.10
1956;DHT22;978;48.314;11.562;2022-09-09T02:13:47;22.90;90.10
1956;DHT22;978;48.314;11.562;2022-09-09T02:16:20;22.80;90.10
1956;DHT22;978;48.314;11.562;2022-09-09T02:18:52;22.90;90.30
1956;DHT22;978;48.314;11.562;2022-09-09T02:21:22;22.90;90.10
1956;DHT22;978;48.314;11.562;2022-09-09T02:23:53;22.80;90.00
1956;DHT22;978;48.314;11.562;2022-09-09T02:26:23;22.80;90.00
1956;DHT22;978;48.314;11.562;2022-09-09T02:28:57;22.90;90.00
1956;DHT22;978;48.314;11.562;2022-09-09T02:31:27;22.90;90.00
1956;DHT22;978;48.314;11.562;2022-09-09T02:33:57;22.90;90.00
1956;DHT22;978;48.314;11.562;2022-09-09T02:36:30;22.80;90.00
1956;DHT22;978;48.314;11.562;2022-09-09T02:39:00;22.80;90.00
1956;DHT22;978;48.314;11.562;2022-09-09T02:41:32;22.90;90.00
1956;DHT22;978;48.314;11.562;2022-09-09T02:44:05;22.90;90.00
1956;DHT22;978;48.314;11.562;2022-09-09T02:46:51;22.90;90.00
1956;DHT22;978;48.314;11.562;2022-09-09T02:49:27;22.90;90.00
1956;DHT22;978;48.314;11.562;2022-09-09T02:52:01;22.80;89.90
1956;DHT22;978;48.314;11.562;2022-09-09T02:54:31;22.80;89.80
1956;DHT22;978;48.314;11.562;2022-09-09T02:57:05;22.90;89.90
1956;DHT22;978;48.314;11.562;2022-09-09T02:59:35;22.80;89.80
1956;DHT22;978;48.314;11.562;2022-09-09T03:02:04;22.90;89.90
1956;DHT22;978;48.314;11.562;2022-09-09T03:04:32;22.80;89.90
1956;DHT22;978;48.314;11.562;2022-09-09T03:07:00;22.80;90.10
1956;DHT22;978;48.314;11.562;2022-09-09T03:09:30;22.80;89.80
1956;DHT22;978;48.314;11.562;2022-09-09T03:11:59;22.80;89.80
1956;DHT22;978;48.314;11.562;2022-09-09T03:14:26;22.80;89.80
1956;DHT22;978;48.314;11.562;2022-09-09T03:16:56;22.80;89.80
1956;DHT22;978;48.314;11.562;2022-09-09T03:19:27;22.80;89.80
1956;DHT22;978;48.314;11.562;2022-09-09T03:21:56;22.90;89.80
1956;DHT22;978;48.314;11.562;2022-09-09T03:24:25;22.80;89.80
1956;DHT22;978;48.314;11.562;2022-09-09T03:26:52;22.90;89.70
1956;DHT22;978;48.314;11.562;2022-09-09T03:29:22;22.90;89.70
1956;DHT22;978;48.314;11.562;2022-09-09T03:31:50;22.80;89.60
1956;DHT22;978;48.314;11.562;2022-09-09T03:34:19;22.80;89.70
1956;DHT22;978;48.314;11.562;2022-09-09T03:36:47;22.80;89.70
1956;DHT22;978;48.314;11.562;2022-09-09T03:39:16;22.80;89.70
1956;DHT22;978;48.314;11.562;2022-09-09T03:41:44;22.80;89.60
1956;DHT22;978;48.314;11.562;2022-09-09T03:44:14;22.80;89.60
1956;DHT22;978;48.314;11.562;2022-09-09T03:46:42;22.80;89.60
1956;DHT22;978;48.314;11.562;2022-09-09T03:49:10;22.90;89.70
1956;DHT22;978;48.314;11.562;2022-09-09T03:51:43;22.90;89.60
1956;DHT22;978;48.314;11.562;2022-09-09T03:54:10;22.80;89.50
1956;DHT22;978;48.314;11.562;2022-09-09T03:56:41;22.80;89.50
1956;DHT22;978;48.314;11.562;2022-09-09T03:59:09;22.80;89.50
1956;DHT22;978;48.314;11.562;2022-09-09T04:01:37;22.90;89.60
1956;DHT22;978;48.314;11.562;2022-09-09T04:04:05;22.80;90.00
1956;DHT22;978;48.314;11.562;2022-09-09T04:06:36;22.90;89.60
1956;DHT22;978;48.314;11.562;2022-09-09T04:09:05;22.90;89.50
1956;DHT22;978;48.314;11.562;2022-09-09T04:11:33;22.90;89.50
1956;DHT22;978;48.314;11.562;2022-09-09T04:14:01;22.80;89.50
1956;DHT22;978;48.314;11.562;2022-09-09T04:16:29;22.80;89.50
1956;DHT22;978;48.314;11.562;2022-09-09T04:18:56;22.80;89.40
1956;DHT22;978;48.314;11.562;2022-09-09T04:21:26;22.90;89.50
1956;DHT22;978;48.314;11.562;2022-09-09T04:23:54;22.90;89.40
1956;DHT22;978;48.314;11.562;2022-09-09T04:26:23;22.90;89.40
1956;DHT22;978;48.314;11.562;2022-09-09T04:28:52;22.80;89.30
1956;DHT22;978;48.314;11.562;2022-09-09T04:31:21;22.80;89.40
1956;DHT22;978;48.314;11.562;2022-09-09T04:33:50;22.80;89.40
1956;DHT22;978;48.314;11.562;2022-09-09T04:36:19;22.80;89.40
1956;DHT22;978;48.314;11.562;2022-09-09T04:38:47;22.90;89.40
1956;DHT22;978;48.314;11.562;2022-09-09T04:41:16;22.80;89.30
1956;DHT22;978;48.314;11.562;2022-09-09T04:43:45;22.80;89.30
1956;DHT22;978;48.314;11.562;2022-09-09T04:46:13;22.80;89.40
1956;DHT22;978;48.314;11.562;2022-09-09T04:48:43;22.90;89.40
1956;DHT22;978;48.314;11.562;2022-09-09T04:51:13;22.90;89.40
1956;DHT22;978;48.314;11.562;2022-09-09T04:53:41;22.80;89.30
1956;DHT22;978;48.314;11.562;2022-09-09T04:56:11;22.80;89.30
1956;DHT22;978;48.314;11.562;2022-09-09T04:58:40;22.80;89.30
1956;DHT22;978;48.314;11.562;2022-09-09T05:01:12;22.90;89.30
1956;DHT22;978;48.314;11.562;2022-09-09T05:03:41;22.90;89.30
1956;DHT22;978;48.314;11.562;2022-09-09T05:06:10;22.80;89.30
1956;DHT22;978;48.314;11.562;2022-09-09T05:08:41;22.80;89.30
1956;DHT22;978;48.314;11.562;2022-09-09T05:11:19;22.80;89.20
1956;DHT22;978;48.314;11.562;2022-09-09T05:13:48;22.80;89.30
1956;DHT22;978;48.314;11.562;2022-09-09T05:16:18;22.80;89.20
1956;DHT22;978;48.314;11.562;2022-09-09T05:18:46;22.80;89.20
1956;DHT22;978;48.314;11.562;2022-09-09T05:21:16;22.90;89.20
1956;DHT22;978;48.314;11.562;2022-09-09T05:23:45;22.80;89.20
1956;DHT22;978;48.314;11.562;2022-09-09T05:26:16;22.80;89.20
1956;DHT22;978;48.314;11.562;2022-09-09T05:28:44;22.80;89.20
1956;DHT22;978;48.314;11.562;2022-09-09T05:31:13;22.80;89.20
1956;DHT22;978;48.314;11.562;2022-09-09T05:33:45;22.80;89.20
1956;DHT22;978;48.314;11.562;2022-09-09T05:36:16;22.90;89.20
1956;DHT22;978;48.314;11.562;2022-09-09T05:38:44;22.90;89.20
1956;DHT22;978;48.314;11.562;2022-09-09T05:41:12;22.80;89.20
1956;DHT22;978;48.314;11.562;2022-09-09T05:43:42;22.90;89.20
1956;DHT22;978;48.314;11.562;2022-09-09T05:46:14;22.90;89.20
1956;DHT22;978;48.314;11.562;2022-09-09T05:48:45;22.80;89.10
1956;DHT22;978;48.314;11.562;2022-09-09T05:51:15;22.80;89.00
1956;DHT22;978;48.314;11.562;2022-09-09T05:53:45;22.80;88.90
1956;DHT22;978;48.314;11.562;2022-09-09T05:56:14;22.80;89.20
1956;DHT22;978;48.314;11.562;2022-09-09T05:58:42;22.80;89.20
1956;DHT22;978;48.314;11.562;2022-09-09T06:01:13;22.90;89.20
1956;DHT22;978;48.314;11.562;2022-09-09T06:03:42;22.80;89.10
1956;DHT22;978;48.314;11.562;2022-09-09T06:06:12;22.80;89.20
1956;DHT22;978;48.314;11.562;2022-09-09T06:08:42;22.80;89.20
1956;DHT22;978;48.314;11.562;2022-09-09T06:11:11;22.80;89.20
1956;DHT22;978;48.314;11.562;2022-09-09T06:13:40;22.80;89.20
1956;DHT22;978;48.314;11.562;2022-09-09T06:16:08;22.80;89.20
1956;DHT22;978;48.314;11.562;2022-09-09T06:18:38;22.90;89.20
1956;DHT22;978;48.314;11.562;2022-09-09T06:21:06;22.80;89.20
1956;DHT22;978;48.314;11.562;2022-09-09T06:23:36;22.80;89.20
1956;DHT22;978;48.314;11.562;2022-09-09T06:26:10;22.90;89.30
1956;DHT22;978;48.314;11.562;2022-09-09T06:28:38;22.90;89.30
1956;DHT22;978;48.314;11.562;2022-09-09T06:31:07;22.80;89.20
1956;DHT22;978;48.314;11.562;2022-09-09T06:33:38;22.80;89.20
1956;DHT22;978;48.314;11.562;2022-09-09T06:36:07;22.80;89.20
1956;DHT22;978;48.314;11.562;2022-09-09T06:38:39;22.80;89.20
1956;DHT22;978;48.314;11.562;2022-09-09T06:41:05;22.80;89.30
1956;DHT22;978;48.314;11.562;2022-09-09T06:43:33;22.80;89.20
1956;DHT22;978;48.314;11.562;2022-09-09T06:46:04;22.90;89.30
1956;DHT22;978;48.314;11.562;2022-09-09T06:48:32;22.80;89.30
1956;DHT22;978;48.314;11.562;2022-09-09T06:51:06;22.80;89.20
1956;DHT22;978;48.314;11.562;2022-09-09T06:53:40;22.80;89.80
1956;DHT22;978;48.314;11.562;2022-09-09T06:56:18;22.80;89.30
1956;DHT22;978;48.314;11.562;2022-09-09T06:58:47;22.90;89.30
1956;DHT22;978;48.314;11.562;2022-09-09T07:01:17;22.80;89.30
1956;DHT22;978;48.314;11.562;2022-09-09T07:03:47;22.80;89.40
1956;DHT22;978;48.314;11.562;2022-09-09T07:06:18;22.80;89.40
1956;DHT22;978;48.314;11.562;2022-09-09T07:08:52;22.80;89.40
1956;DHT22;978;48.314;11.562;2022-09-09T07:11:21;22.90;89.40
1956;DHT22;978;48.314;11.562;2022-09-09T07:13:49;22.80;89.40
1956;DHT22;978;48.314;11.562;2022-09-09T07:16:19;22.80;89.40
1956;DHT22;978;48.314;11.562;2022-09-09T07:18:47;22.90;89.40
1956;DHT22;978;48.314;11.562;2022-09-09T07:21:17;22.90;89.50
1956;DHT22;978;48.314;11.562;2022-09-09T07:23:45;22.80;89.40
1956;DHT22;978;48.314;11.562;2022-09-09T07:26:17;22.80;89.40
1956;DHT22;978;48.314;11.562;2022-09-09T07:28:46;22.90;89.40
1956;DHT22;978;48.314;11.562;2022-09-09T07:31:16;22.80;89.40
1956;DHT22;978;48.314;11.562;2022-09-09T07:33:45;22.80;89.40
1956;DHT22;978;48.314;11.562;2022-09-09T07:36:15;22.80;89.20
1956;DHT22;978;48.314;11.562;2022-09-09T07:38:45;22.80;89.40
1956;DHT22;978;48.314;11.562;2022-09-09T07:41:17;22.80;89.30
1956;DHT22;978;48.314;11.562;2022-09-09T07:43:47;22.90;89.40
1956;DHT22;978;48.314;11.562;2022-09-09T07:46:18;22.80;89.90
1956;DHT22;978;48.314;11.562;2022-09-09T07:48:48;22.80;89.30
1956;DHT22;978;48.314;11.562;2022-09-09T07:51:19;22.90;89.30
1956;DHT22;978;48.314;11.562;2022-09-09T07:53:52;22.80;89.30
1956;DHT22;978;48.314;11.562;2022-09-09T07:56:21;22.90;89.40
1956;DHT22;978;48.314;11.562;2022-09-09T07:58:50;22.80;89.20
1956;DHT22;978;48.314;11.562;2022-09-09T08:01:21;22.80;89.20
1956;DHT22;978;48.314;11.562;2022-09-09T08:03:53;22.80;89.30
1956;DHT22;978;48.314;11.562;2022-09-09T08:06:22;22.80;89.40
1956;DHT22;978;48.314;11.562;2022-09-09T08:08:51;22.90;89.30
1956;DHT22;978;48.314;11.562;2022-09-09T08:11:22;22.80;89.30
1956;DHT22;978;48.314;11.562;2022-09-09T08:13:51;22.80;89.30
1956;DHT22;978;48.314;11.562;2022-09-09T08:16:21;22.80;89.30
1956;DHT22;978;48.314;11.562;2022-09-09T08:18:49;22.80;89.30
1956;DHT22;978;48.314;11.562;2022-09-09T08:21:20;22.80;89.40
1956;DHT22;978;48.314;11.562;2022-09-09T08:23:49;22.80;89.40
1956;DHT22;978;48.314;11.562;2022-09-09T08:26:21;22.80;89.50
1956;DHT22;978;48.314;11.562;2022-09-09T08:28:51;22.80;89.50
1956;DHT22;978;48.314;11.562;2022-09-09T08:31:21;22.80;89.50
1956;DHT22;978;48.314;11.562;2022-09-09T08:33:50;22.80;89.60
1956;DHT22;978;48.314;11.562;2022-09-09T08:36:19;22.80;89.60
1956;DHT22;978;48.314;11.562;2022-09-09T08:38:50;22.80;89.60
1956;DHT22;978;48.314;11.562;2022-09-09T08:44:23;22.80;89.70
1956;DHT22;978;48.314;11.562;2022-09-09T08:47:01;22.80;89.80
1956;DHT22;978;48.314;11.562;2022-09-09T08:52:39;22.90;89.80
1956;DHT22;978;48.314;11.562;2022-09-09T08:55:20;22.80;89.80
1956;DHT22;978;48.314;11.562;2022-09-09T08:57:53;22.80;89.80
1956;DHT22;978;48.314;11.562;2022-09-09T09:00:22;22.80;89.90
1956;DHT22;978;48.314;11.562;2022-09-09T09:03:01;22.80;89.90
1956;DHT22;978;48.314;11.562;2022-09-09T09:05:37;22.80;90.00
1956;DHT22;978;48.314;11.562;2022-09-09T09:08:17;22.90;90.00
1956;DHT22;978;48.314;11.562;2022-09-09T09:10:51;22.80;90.00
1956;DHT22;978;48.314;11.562;2022-09-09T09:13:26;22.90;90.00
1956;DHT22;978;48.314;11.562;2022-09-09T09:15:59;22.80;90.00
1956;DHT22;978;48.314;11.562;2022-09-09T09:18:28;22.90;90.00
1956;DHT22;978;48.314;11.562;2022-09-09T09:21:02;22.90;90.00
1956;DHT22;978;48.314;11.562;2022-09-09T09:23:42;22.90;90.10
1956;DHT22;978;48.314;11.562;2022-09-09T09:26:11;22.80;90.10
1956;DHT22;978;48.314;11.562;2022-09-09T09:28:41;22.80;90.00
1956;DHT22;978;48.314;11.562;2022-09-09T09:31:10;22.80;90.10
1956;DHT22;978;48.314;11.562;2022-09-09T09:33:47;22.80;90.10
1956;DHT22;978;48.314;11.562;2022-09-09T09:36:16;22.80;90.10
1956;DHT22;978;48.314;11.562;2022-09-09T09:38:58;22.80;90.10
1956;DHT22;978;48.314;11.562;2022-09-09T09:41:34;22.80;90.10
1956;DHT22;978;48.314;11.562;2022-09-09T09:44:05;22.80;90.10
1956;DHT22;978;48.314;11.562;2022-09-09T09:46:34;22.80;90.10
1956;DHT22;978;48.314;11.562;2022-09-09T09:49:03;22.80;90.20
1956;DHT22;978;48.314;11.562;2022-09-09T09:51:32;22.80;90.20
1956;DHT22;978;48.314;11.562;2022-09-09T09:54:17;22.80;90.20
1956;DHT22;978;48.314;11.562;2022-09-09T09:56:47;22.80;90.20
1956;DHT22;978;48.314;11.562;2022-09-09T09:59:33;22.90;90.20
1956;DHT22;978;48.314;11.562;2022-09-09T10:02:18;22.80;90.20
1956;DHT22;978;48.314;11.562;2022-09-09T10:04:59;22.90;90.20
1956;DHT22;978;48.314;11.562;2022-09-09T10:07:27;22.90;90.20
1956;DHT22;978;48.314;11.562;2022-09-09T10:09:57;22.90;90.30
1956;DHT22;978;48.314;11.562;2022-09-09T10:12:34;22.80;90.30
1956;DHT22;978;48.314;11.562;2022-09-09T10:15:25;22.90;90.30
1956;DHT22;978;48.314;11.562;2022-09-09T10:18:08;22.80;90.30
1956;DHT22;978;48.314;11.562;2022-09-09T10:20:48;22.80;90.30
1956;DHT22;978;48.314;11.562;2022-09-09T10:23:29;22.80;90.30
1956;DHT22;978;48.314;11.562;2022-09-09T10:26:16;22.90;90.40
1956;DHT22;978;48.314;11.562;2022-09-09T10:29:01;22.80;90.30
1956;DHT22;978;48.314;11.562;2022-09-09T10:31:40;22.90;90.40
1956;DHT22;978;48.314;11.562;2022-09-09T10:34:17;22.80;90.30
1956;DHT22;978;48.314;11.562;2022-09-09T10:36:49;22.90;90.30
1956;DHT22;978;48.314;11.562;2022-09-09T10:39:32;22.90;90.60
1956;DHT22;978;48.314;11.562;2022-09-09T10:42:05;22.80;90.30
1956;DHT22;978;48.314;11.562;2022-09-09T10:44:54;22.90;90.40
1956;DHT22;978;48.314;11.562;2022-09-09T10:47:58;22.90;90.40
1956;DHT22;978;48.314;11.562;2022-09-09T10:50:42;22.90;90.40
1956;DHT22;978;48.314;11.562;2022-09-09T10:53:19;22.90;90.40
1956;DHT22;978;48.314;11.562;2022-09-09T10:55:55;22.90;90.40
1956;DHT22;978;48.314;11.562;2022-09-09T10:58:28;22.90;90.40
1956;DHT22;978;48.314;11.562;2022-09-09T11:01:03;22.90;90.40
1956;DHT22;978;48.314;11.562;2022-09-09T11:03:39;22.90;90.40
1956;DHT22;978;48.314;11.562;2022-09-09T11:06:13;22.90;90.40
1956;DHT22;978;48.314;11.562;2022-09-09T11:08:42;22.90;90.40
1956;DHT22;978;48.314;11.562;2022-09-09T11:11:15;22.90;90.50
1956;DHT22;978;48.314;11.562;2022-09-09T11:13:48;22.90;90.50
1956;DHT22;978;48.314;11.562;2022-09-09T11:16:24;22.90;90.40
1956;DHT22;978;48.314;11.562;2022-09-09T11:18:57;22.90;90.40
1956;DHT22;978;48.314;11.562;2022-09-09T11:21:29;22.90;90.40
1956;DHT22;978;48.314;11.562;2022-09-09T11:24:01;22.90;90.50
1956;DHT22;978;48.314;11.562;2022-09-09T11:26:37;22.90;90.50
1956;DHT22;978;48.314;11.562;2022-09-09T11:29:18;22.90;90.50
1956;DHT22;978;48.314;11.562;2022-09-09T11:31:56;22.90;90.50
1956;DHT22;978;48.314;11.562;2022-09-09T11:34:37;22.90;90.50
1956;DHT22;978;48.314;11.562;2022-09-09T11:37:35;22.90;90.50
1956;DHT22;978;48.314;11.562;2022-09-09T11:40:18;22.90;90.50
1956;DHT22;978;48.314;11.562;2022-09-09T11:42:46;22.90;90.50
1956;DHT22;978;48.314;11.562;2022-09-09T11:45:25;22.90;90.50
1956;DHT22;978;48.314;11.562;2022-09-09T11:47:54;22.90;90.50
1956;DHT22;978;48.314;11.562;2022-09-09T11:50:31;22.90;90.50
1956;DHT22;978;48.314;11.562;2022-09-09T11:53:16;22.90;90.50
1956;DHT22;978;48.314;11.562;2022-09-09T11:55:46;22.90;90.50
1956;DHT22;978;48.314;11.562;2022-09-09T11:58:17;22.90;90.50
1956;DHT22;978;48.314;11.562;2022-09-09T12:00:47;22.90;90.50
1956;DHT22;978;48.314;11.562;2022-09-09T12:03:33;22.90;90.60
1956;DHT22;978;48.314;11.562;2022-09-09T12:06:12;22.90;90.60
1956;DHT22;978;48.314;11.562;2022-09-09T12:08:42;22.90;90.60
1956;DHT22;978;48.314;11.562;2022-09-09T12:11:10;22.90;90.60
1956;DHT22;978;48.314;11.562;2022-09-09T12:13:37;22.90;90.60
1956;DHT22;978;48.314;11.562;2022-09-09T12:16:04;22.90;90.60
1956;DHT22;978;48.314;11.562;2022-09-09T12:18:35;22.80;90.40
1956;DHT22;978;48.314;11.562;2022-09-09T12:21:11;22.90;90.20
1956;DHT22;978;48.314;11.562;2022-09-09T12:23:47;22.80;90.20
1956;DHT22;978;48.314;11.562;2022-09-09T12:26:26;22.80;90.30
1956;DHT22;978;48.314;11.562;2022-09-09T12:29:16;22.80;89.90
1956;DHT22;978;48.314;11.562;2022-09-09T12:31:50;22.80;89.70
1956;DHT22;978;48.314;11.562;2022-09-09T12:34:29;22.90;89.40
1956;DHT22;978;48.314;11.562;2022-09-09T12:37:03;22.80;89.30
1956;DHT22;978;48.314;11.562;2022-09-09T12:39:38;22.90;89.30
1956;DHT22;978;48.314;11.562;2022-09-09T12:42:18;22.80;88.80
1956;DHT22;978;48.314;11.562;2022-09-09T12:44:56;22.80;88.70
1956;DHT22;978;48.314;11.562;2022-09-09T12:47:29;22.80;88.60
1956;DHT22;978;48.314;11.562;2022-09-09T12:49:57;22.80;88.30
1956;DHT22;978;48.314;11.562;2022-09-09T12:52:29;22.80;88.50
1956;DHT22;978;48.314;11.562;2022-09-09T12:55:00;22.80;88.10
1956;DHT22;978;48.314;11.562;2022-09-09T12:57:34;22.90;87.90
1956;DHT22;978;48.314;11.562;2022-09-09T13:00:11;22.80;87.90
1956;DHT22;978;48.314;11.562;2022-09-09T13:02:50;22.80;87.70
1956;DHT22;978;48.314;11.562;2022-09-09T13:05:21;22.80;87.60
1956;DHT22;978;48.314;11.562;2022-09-09T13:07:49;22.80;88.10
1956;DHT22;978;48.314;11.562;2022-09-09T13:10:25;22.80;87.60
1956;DHT22;978;48.314;11.562;2022-09-09T13:12:53;22.80;87.60
1956;DHT22;978;48.314;11.562;2022-09-09T13:15:22;22.80;87.90
1956;DHT22;978;48.314;11.562;2022-09-09T13:17:57;22.80;88.30
1956;DHT22;978;48.314;11.562;2022-09-09T13:20:28;22.80;88.70
1956;DHT22;978;48.314;11.562;2022-09-09T13:22:57;22.80;89.00
1956;DHT22;978;48.314;11.562;2022-09-09T13:25:26;22.80;89.30
1956;DHT22;978;48.314;11.562;2022-09-09T13:27:58;22.80;89.50
1956;DHT22;978;48.314;11.562;2022-09-09T13:30:29;22.80;89.60
1956;DHT22;978;48.314;11.562;2022-09-09T13:33:05;22.80;89.80
1956;DHT22;978;48.314;11.562;2022-09-09T13:35:45;22.90;89.80
1956;DHT22;978;48.314;11.562;2022-09-09T13:38:15;22.80;89.80
1956;DHT22;978;48.314;11.562;2022-09-09T13:40:54;22.80;89.80
1956;DHT22;978;48.314;11.562;2022-09-09T13:43:24;22.80;89.80
1956;DHT22;978;48.314;11.562;2022-09-09T13:45:55;22.80;89.80
1956;DHT22;978;48.314;11.562;2022-09-09T13:48:25;22.80;89.80
1956;DHT22;978;48.314;11.562;2022-09-09T13:51:00;22.80;89.90
1956;DHT22;978;48.314;11.562;2022-09-09T13:53:29;22.90;90.00
1956;DHT22;978;48.314;11.562;2022-09-09T13:55:57;22.90;89.90
1956;DHT22;978;48.314;11.562;2022-09-09T13:58:26;22.80;90.00
1956;DHT22;978;48.314;11.562;2022-09-09T14:00:53;22.80;90.00
1956;DHT22;978;48.314;11.562;2022-09-09T14:03:21;22.90;90.00
1956;DHT22;978;48.314;11.562;2022-09-09T14:05:48;22.90;90.00
1956;DHT22;978;48.314;11.562;2022-09-09T14:08:22;22.90;90.10
1956;DHT22;978;48.314;11.562;2022-09-09T14:10:51;22.90;90.10
1956;DHT22;978;48.314;11.562;2022-09-09T14:13:26;22.90;90.20
1956;DHT22;978;48.314;11.562;2022-09-09T14:15:54;22.90;90.20
1956;DHT22;978;48.314;11.562;2022-09-09T14:18:23;22.90;90.20
1956;DHT22;978;48.314;11.562;2022-09-09T14:20:50;22.90;90.30
1956;DHT22;978;48.314;11.562;2022-09-09T14:23:19;22.90;90.20
1956;DHT22;978;48.314;11.562;2022-09-09T14:25:47;22.90;90.20
1956;DHT22;978;48.314;11.562;2022-09-09T14:28:14;22.90;90.20
1956;DHT22;978;48.314;11.562;2022-09-09T14:30:43;22.90;90.20
1956;DHT22;978;48.314;11.562;2022-09-09T14:33:12;22.90;90.20
1956;DHT22;978;48.314;11.562;2022-09-09T14:35:39;22.90;90.20
1956;DHT22;978;48.314;11.562;2022-09-09T14:38:07;22.90;90.40
1956;DHT22;978;48.314;11.562;2022-09-09T14:40:37;22.90;90.40
1956;DHT22;978;48.314;11.562;2022-09-09T14:43:05;22.90;90.50
1956;DHT22;978;48.314;11.562;2022-09-09T14:45:32;22.90;90.50
1956;DHT22;978;48.314;11.562;2022-09-09T14:48:04;22.90;90.40
1956;DHT22;978;48.314;11.562;2022-09-09T14:50:31;22.90;90.40
1956;DHT22;978;48.314;11.562;2022-09-09T14:52:58;22.90;90.40
1956;DHT22;978;48.314;11.562;2022-09-09T14:55:25;22.90;90.50
1956;DHT22;978;48.314;11.562;2022-09-09T14:57:54;22.90;90.50
1956;DHT22;978;48.314;11.562;2022-09-09T15:00:20;22.90;90.50
1956;DHT22;978;48.314;11.562;2022-09-09T15:02:47;22.90;90.50
1956;DHT22;978;48.314;11.562;2022-09-09T15:05:16;22.90;90.50
1956;DHT22;978;48.314;11.562;2022-09-09T15:07:44;22.90;90.60
1956;DHT22;978;48.314;11.562;2022-09-09T15:10:12;22.90;90.60
1956;DHT22;978;48.314;11.562;2022-09-09T15:12:39;22.90;90.60
1956;DHT22;978;48.314;11.562;2022-09-09T15:15:08;22.90;90.60
1956;DHT22;978;48.314;11.562;2022-09-09T15:17:36;22.90;90.60
1956;DHT22;978;48.314;11.562;2022-09-09T15:20:03;22.90;90.60
1956;DHT22;978;48.314;11.562;2022-09-09T15:22:32;22.90;90.60
1956;DHT22;978;48.314;11.562;2022-09-09T15:25:01;22.90;90.60
1956;DHT22;978;48.314;11.562;2022-09-09T15:27:28;22.90;90.60
1956;DHT22;978;48.314;11.562;2022-09-09T15:29:56;22.90;90.60
1956;DHT22;978;48.314;11.562;2022-09-09T15:32:24;22.90;90.60
1956;DHT22;978;48.314;11.562;2022-09-09T15:34:51;22.90;90.60
1956;DHT22;978;48.314;11.562;2022-09-09T15:37:19;22.90;90.60
1956;DHT22;978;48.314;11.562;2022-09-09T15:39:49;22.90;90.60
1956;DHT22;978;48.314;11.562;2022-09-09T15:42:17;22.90;90.60
1956;DHT22;978;48.314;11.562;2022-09-09T15:44:43;22.90;90.60
1956;DHT22;978;48.314;11.562;2022-09-09T15:47:11;22.90;90.60
1956;DHT22;978;48.314;11.562;2022-09-09T15:49:40;22.90;90.60
1956;DHT22;978;48.314;11.562;2022-09-09T15:52:09;22.90;90.60
1956;DHT22;978;48.314;11.562;2022-09-09T15:54:37;22.90;90.60
1956;DHT22;978;48.314;11.562;2022-09-09T15:57:07;22.90;90.70
1956;DHT22;978;48.314;11.562;2022-09-09T15:59:35;22.90;90.70
1956;DHT22;978;48.314;11.562;2022-09-09T16:02:02;22.90;90.70
1956;DHT22;978;48.314;11.562;2022-09-09T16:04:30;22.90;90.70
1956;DHT22;978;48.314;11.562;2022-09-09T16:07:02;22.90;90.70
1956;DHT22;978;48.314;11.562;2022-09-09T16:09:31;22.90;90.70
1956;DHT22;978;48.314;11.562;2022-09-09T16:11:59;22.90;90.70
1956;DHT22;978;48.314;11.562;2022-09-09T16:14:29;22.90;90.70
1956;DHT22;978;48.314;11.562;2022-09-09T16:16:59;22.90;90.70
1956;DHT22;978;48.314;11.562;2022-09-09T16:19:27;22.90;90.70
1956;DHT22;978;48.314;11.562;2022-09-09T16:21:54;22.90;90.70
1956;DHT22;978;48.314;11.562;2022-09-09T16:24:22;22.90;90.70
1956;DHT22;978;48.314;11.562;2022-09-09T16:26:50;22.90;90.70
1956;DHT22;978;48.314;11.562;2022-09-09T16:29:19;22.90;90.70
1956;DHT22;978;48.314;11.562;2022-09-09T16:31:50;22.90;90.70
1956;DHT22;978;48.314;11.562;2022-09-09T16:34:18;22.90;90.70
1956;DHT22;978;48.314;11.562;2022-09-09T16:36:48;22.90;90.70
1956;DHT22;978;48.314;11.562;2022-09-09T16:39:18;22.90;90.80
1956;DHT22;978;48.314;11.562;2022-09-09T16:41:48;22.90;90.80